sensor_id;sensor_type;location;lat;lon;timestamp;pressure;altitude;pressure_sealevel;temperature;humidity
21109;BME280;10712;52.944;9.098;2024-03-23T00:54:02;100746.03;;;15.47;73.60
21109;BME280;10712;52.944;9.098;2024-03-23T00:56:29;100741.63;;;15.46;73.66
21109;BME280;10712;52.944;9.098;2024-03-23T00:58:55;100734.16;;;15.49;73.55
21109;BME280;10712;52.944;9.098;2024-03-23T01:01:21;100735.41;;;15.45;73.75
21109;BME280;10712;52.944;9.098;2024-03-23T01:03:47;100739.31;;;15.41;73.64
21109;BME280;10712;52.944;9.098;2024-03-23T01:06:12;100743.94;;;15.39;73.69
21109;BME280;10712;52.944;9.098;2024-03-23T01:08:38;100748.81;;;15.34;73.83
21109;BME280;10712;52.944;9.098;2024-03-23T01:11:04;100739.28;;;15.30;74.04
21109;BME280;10712;52.944;9.098;2024-03-23T01:13:30;100731.13;;;15.31;74.00
21109;BME280;10712;52.944;9.098;2024-03-23T01:15:56;100730.03;;;15.34;74.08
21109;BME280;10712;52.944;9.098;2024-03-23T01:18:23;100721.97;;;15.34;74.00
21109;BME280;10712;52.944;9.098;2024-03-23T01:20:50;100726.38;;;15.35;73.97
21109;BME280;10712;52.944;9.098;2024-03-23T01:23:15;100724.78;;;15.32;74.05
21109;BME280;10712;52.944;9.098;2024-03-23T01:25:41;100718.31;;;15.35;74.12
21109;BME280;10712;52.944;9.098;2024-03-23T01:28:07;100706.97;;;15.31;73.92
21109;BME280;10712;52.944;9.098;2024-03-23T01:30:35;100706.84;;;15.33;74.03
21109;BME280;10712;52.944;9.098;2024-03-23T01:33:01;100707.94;;;15.30;74.03
21109;BME280;10712;52.944;9.098;2024-03-23T01:35:28;100698.69;;;15.34;73.94
21109;BME280;10712;52.944;9.098;2024-03-23T01:37:54;100686.56;;;15.29;73.98
21109;BME280;10712;52.944;9.098;2024-03-23T01:40:20;100687.31;;;15.31;73.94
21109;BME280;10712;52.944;9.098;2024-03-23T01:42:57;100689.50;;;15.26;73.90
21109;BME280;10712;52.944;9.098;2024-03-23T01:45:23;100680.72;;;15.24;73.95
21109;BME280;10712;52.944;9.098;2024-03-23T01:47:51;100677.06;;;15.25;74.02
21109;BME280;10712;52.944;9.098;2024-03-23T01:50:19;100675.47;;;15.22;74.00
21109;BME280;10712;52.944;9.098;2024-03-23T01:52:46;100661.19;;;15.22;74.02
21109;BME280;10712;52.944;9.098;2024-03-23T01:55:12;100654.97;;;15.21;74.03
21109;BME280;10712;52.944;9.098;2024-03-23T01:57:37;100661.06;;;15.23;74.00
21109;BME280;10712;52.944;9.098;2024-03-23T02:00:04;100662.19;;;15.21;73.86
21109;BME280;10712;52.944;9.098;2024-03-23T02:02:56;100662.53;;;15.16;73.92
21109;BME280;10712;52.944;9.098;2024-03-23T02:05:22;100657.78;;;15.20;73.93
21109;BME280;10712;52.944;9.098;2024-03-23T02:07:48;100654.59;;;15.15;74.00
21109;BME280;10712;52.944;9.098;2024-03-23T02:10:13;100650.22;;;15.14;73.83
21109;BME280;10712;52.944;9.098;2024-03-23T02:12:40;100644.22;;;15.10;74.09
21109;BME280;10712;52.944;9.098;2024-03-23T02:15:07;100650.34;;;15.12;73.88
21109;BME280;10712;52.944;9.098;2024-03-23T02:17:35;100643.50;;;15.08;73.94
21109;BME280;10712;52.944;9.098;2024-03-23T02:20:02;100653.38;;;15.08;74.05
21109;BME280;10712;52.944;9.098;2024-03-23T02:22:38;100647.78;;;15.11;73.52
21109;BME280;10712;52.944;9.098;2024-03-23T02:25:05;100646.44;;;15.05;73.86
21109;BME280;10712;52.944;9.098;2024-03-23T02:27:32;100651.44;;;15.10;73.82
21109;BME280;10712;52.944;9.098;2024-03-23T02:29:58;100652.53;;;15.07;73.72
21109;BME280;10712;52.944;9.098;2024-03-23T02:32:24;100654.38;;;15.07;73.76
21109;BME280;10712;52.944;9.098;2024-03-23T02:34:50;100647.41;;;15.04;73.92
21109;BME280;10712;52.944;9.098;2024-03-23T02:37:16;100636.78;;;15.03;73.86
21109;BME280;10712;52.944;9.098;2024-03-23T02:39:41;100632.38;;;15.02;74.01
21109;BME280;10712;52.944;9.098;2024-03-23T02:42:07;100629.69;;;15.02;74.10
21109;BME280;10712;52.944;9.098;2024-03-23T02:44:33;100625.31;;;15.01;74.18
21109;BME280;10712;52.944;9.098;2024-03-23T02:46:59;100633.34;;;15.01;73.87
21109;BME280;10712;52.944;9.098;2024-03-23T02:49:25;100621.66;;;15.02;73.99
21109;BME280;10712;52.944;9.098;2024-03-23T02:51:51;100624.00;;;15.06;74.08
21109;BME280;10712;52.944;9.098;2024-03-23T02:54:17;100632.38;;;15.02;73.74
21109;BME280;10712;52.944;9.098;2024-03-23T02:56:42;100627.16;;;15.00;73.71
21109;BME280;10712;52.944;9.098;2024-03-23T02:59:08;100619.94;;;15.01;73.48
21109;BME280;10712;52.944;9.098;2024-03-23T03:01:34;100611.41;;;14.95;73.52
21109;BME280;10712;52.944;9.098;2024-03-23T03:04:00;100613.59;;;14.90;73.72
21109;BME280;10712;52.944;9.098;2024-03-23T03:06:27;100615.91;;;14.95;73.65
21109;BME280;10712;52.944;9.098;2024-03-23T03:08:52;100603.63;;;14.92;73.56
21109;BME280;10712;52.944;9.098;2024-03-23T03:11:18;100599.22;;;14.91;73.56
21109;BME280;10712;52.944;9.098;2024-03-23T03:13:44;100596.88;;;14.87;73.77
21109;BME280;10712;52.944;9.098;2024-03-23T03:16:11;100597.03;;;14.96;73.58
21109;BME280;10712;52.944;9.098;2024-03-23T03:18:37;100593.00;;;14.91;73.50
21109;BME280;10712;52.944;9.098;2024-03-23T03:21:04;100586.91;;;14.89;73.70
21109;BME280;10712;52.944;9.098;2024-03-23T03:23:32;100592.25;;;14.89;73.65
21109;BME280;10712;52.944;9.098;2024-03-23T03:25:58;100592.16;;;14.90;73.69
21109;BME280;10712;52.944;9.098;2024-03-23T03:28:24;100594.09;;;14.88;73.69
21109;BME280;10712;52.944;9.098;2024-03-23T03:30:51;100591.28;;;14.90;73.77
21109;BME280;10712;52.944;9.098;2024-03-23T03:33:17;100594.09;;;14.88;73.70
21109;BME280;10712;52.944;9.098;2024-03-23T03:35:43;100591.66;;;14.96;73.48
21109;BME280;10712;52.944;9.098;2024-03-23T03:38:09;100584.22;;;14.89;73.52
21109;BME280;10712;52.944;9.098;2024-03-23T03:40:35;100587.00;;;14.87;73.52
21109;BME280;10712;52.944;9.098;2024-03-23T03:43:01;100587.00;;;14.87;73.48
21109;BME280;10712;52.944;9.098;2024-03-23T03:45:27;100564.34;;;14.80;73.46
21109;BME280;10712;52.944;9.098;2024-03-23T03:47:52;100557.28;;;14.79;73.71
21109;BME280;10712;52.944;9.098;2024-03-23T03:50:19;100555.09;;;14.84;73.60
21109;BME280;10712;52.944;9.098;2024-03-23T03:52:45;100550.91;;;14.80;73.40
21109;BME280;10712;52.944;9.098;2024-03-23T03:55:14;100543.13;;;14.77;73.77
21109;BME280;10712;52.944;9.098;2024-03-23T03:57:40;100545.44;;;14.82;73.54
21109;BME280;10712;52.944;9.098;2024-03-23T04:00:06;100555.56;;;14.78;73.55
21109;BME280;10712;52.944;9.098;2024-03-23T04:02:33;100551.19;;;14.77;73.49
21109;BME280;10712;52.944;9.098;2024-03-23T04:04:59;100557.53;;;14.76;73.69
21109;BME280;10712;52.944;9.098;2024-03-23T04:07:25;100552.25;;;14.75;73.71
21109;BME280;10712;52.944;9.098;2024-03-23T04:09:50;100554.84;;;14.76;73.66
21109;BME280;10712;52.944;9.098;2024-03-23T04:12:16;100563.00;;;14.75;73.62
21109;BME280;10712;52.944;9.098;2024-03-23T04:14:42;100558.47;;;14.75;73.65
21109;BME280;10712;52.944;9.098;2024-03-23T04:17:08;100556.78;;;14.74;73.80
21109;BME280;10712;52.944;9.098;2024-03-23T04:19:33;100543.38;;;14.74;73.52
21109;BME280;10712;52.944;9.098;2024-03-23T04:21:59;100542.41;;;14.75;73.89
21109;BME280;10712;52.944;9.098;2024-03-23T04:24:25;100527.28;;;14.74;73.64
21109;BME280;10712;52.944;9.098;2024-03-23T04:26:52;100530.94;;;14.73;73.61
21109;BME280;10712;52.944;9.098;2024-03-23T04:29:18;100529.25;;;14.72;73.59
21109;BME280;10712;52.944;9.098;2024-03-23T04:31:43;100533.75;;;14.72;73.65
21109;BME280;10712;52.944;9.098;2024-03-23T04:34:10;100551.78;;;14.70;73.64
21109;BME280;10712;52.944;9.098;2024-03-23T04:36:35;100566.41;;;14.66;73.67
21109;BME280;10712;52.944;9.098;2024-03-23T04:39:01;100570.91;;;14.65;73.72
21109;BME280;10712;52.944;9.098;2024-03-23T04:41:27;100564.56;;;14.66;73.55
21109;BME280;10712;52.944;9.098;2024-03-23T04:43:53;100549.47;;;14.65;73.52
21109;BME280;10712;52.944;9.098;2024-03-23T04:46:19;100538.97;;;14.62;73.60
21109;BME280;10712;52.944;9.098;2024-03-23T04:48:46;100540.69;;;14.63;73.53
21109;BME280;10712;52.944;9.098;2024-03-23T04:51:21;100547.75;;;14.64;73.72
21109;BME280;10712;52.944;9.098;2024-03-23T04:53:47;100547.50;;;14.67;73.41
21109;BME280;10712;52.944;9.098;2024-03-23T04:56:15;100553.38;;;14.72;73.27
21109;BME280;10712;52.944;9.098;2024-03-23T04:58:41;100547.38;;;14.69;73.24
21109;BME280;10712;52.944;9.098;2024-03-23T05:01:06;100539.72;;;14.64;73.38
21109;BME280;10712;52.944;9.098;2024-03-23T05:03:32;100533.88;;;14.70;73.25
21109;BME280;10712;52.944;9.098;2024-03-23T05:05:58;100531.16;;;14.59;73.64
21109;BME280;10712;52.944;9.098;2024-03-23T05:08:24;100522.78;;;14.64;73.54
21109;BME280;10712;52.944;9.098;2024-03-23T05:10:50;100529.34;;;14.59;73.55
21109;BME280;10712;52.944;9.098;2024-03-23T05:13:15;100508.75;;;14.60;73.61
21109;BME280;10712;52.944;9.098;2024-03-23T05:15:41;100501.22;;;14.65;73.42
21109;BME280;10712;52.944;9.098;2024-03-23T05:18:07;100497.31;;;14.58;73.66
21109;BME280;10712;52.944;9.098;2024-03-23T05:20:33;100505.09;;;14.61;73.71
21109;BME280;10712;52.944;9.098;2024-03-23T05:22:59;100501.81;;;14.57;73.53
21109;BME280;10712;52.944;9.098;2024-03-23T05:25:24;100510.09;;;14.54;73.60
21109;BME280;10712;52.944;9.098;2024-03-23T05:27:50;100508.16;;;14.56;73.64
21109;BME280;10712;52.944;9.098;2024-03-23T05:30:16;100496.56;;;14.56;73.60
21109;BME280;10712;52.944;9.098;2024-03-23T05:32:42;100494.00;;;14.54;73.65
21109;BME280;10712;52.944;9.098;2024-03-23T05:35:09;100490.34;;;14.55;73.55
21109;BME280;10712;52.944;9.098;2024-03-23T05:37:35;100501.66;;;14.59;73.44
21109;BME280;10712;52.944;9.098;2024-03-23T05:40:03;100501.94;;;14.56;73.24
21109;BME280;10712;52.944;9.098;2024-03-23T05:42:30;100496.81;;;14.64;72.86
21109;BME280;10712;52.944;9.098;2024-03-23T05:44:55;100494.00;;;14.54;73.26
21109;BME280;10712;52.944;9.098;2024-03-23T05:47:21;100493.88;;;14.56;73.04
21109;BME280;10712;52.944;9.098;2024-03-23T05:49:47;100503.38;;;14.60;73.14
21109;BME280;10712;52.944;9.098;2024-03-23T05:52:13;100489.97;;;14.49;73.38
21109;BME280;10712;52.944;9.098;2024-03-23T05:54:39;100497.06;;;14.50;73.43
21109;BME280;10712;52.944;9.098;2024-03-23T05:57:05;100494.50;;;14.48;73.37
21109;BME280;10712;52.944;9.098;2024-03-23T05:59:33;100502.63;;;14.47;73.26
21109;BME280;10712;52.944;9.098;2024-03-23T06:01:59;100497.28;;;14.47;73.31
21109;BME280;10712;52.944;9.098;2024-03-23T06:04:25;100500.94;;;14.46;73.40
21109;BME280;10712;52.944;9.098;2024-03-23T06:06:51;100491.44;;;14.42;73.50
21109;BME280;10712;52.944;9.098;2024-03-23T06:09:20;100499.47;;;14.42;73.28
21109;BME280;10712;52.944;9.098;2024-03-23T06:11:46;100488.75;;;14.42;73.25
21109;BME280;10712;52.944;9.098;2024-03-23T06:14:12;100490.69;;;14.40;73.37
21109;BME280;10712;52.944;9.098;2024-03-23T06:16:38;100486.81;;;14.44;73.34
21109;BME280;10712;52.944;9.098;2024-03-23T06:19:04;100486.81;;;14.44;73.20
21109;BME280;10712;52.944;9.098;2024-03-23T06:21:32;100488.13;;;14.38;73.06
21109;BME280;10712;52.944;9.098;2024-03-23T06:23:59;100476.94;;;14.44;72.99
21109;BME280;10712;52.944;9.098;2024-03-23T06:26:24;100480.19;;;14.37;72.88
21109;BME280;10712;52.944;9.098;2024-03-23T06:28:50;100484.63;;;14.38;72.87
21109;BME280;10712;52.944;9.098;2024-03-23T06:31:16;100482.13;;;14.35;72.90
21109;BME280;10712;52.944;9.098;2024-03-23T06:33:42;100482.13;;;14.35;72.86
21109;BME280;10712;52.944;9.098;2024-03-23T06:36:10;100479.97;;;14.40;72.74
21109;BME280;10712;52.944;9.098;2024-03-23T06:38:37;100481.69;;;14.41;72.51
21109;BME280;10712;52.944;9.098;2024-03-23T06:41:07;100482.53;;;14.41;72.52
21109;BME280;10712;52.944;9.098;2024-03-23T06:43:33;100476.09;;;14.44;72.55
21109;BME280;10712;52.944;9.098;2024-03-23T06:45:59;100470.97;;;14.63;72.29
21109;BME280;10712;52.944;9.098;2024-03-23T06:48:25;100476.59;;;14.71;72.08
21109;BME280;10712;52.944;9.098;2024-03-23T06:50:56;100472.56;;;14.54;72.51
21109;BME280;10712;52.944;9.098;2024-03-23T06:53:23;100473.88;;;14.60;72.16
21109;BME280;10712;52.944;9.098;2024-03-23T06:55:53;100480.63;;;14.66;72.39
21109;BME280;10712;52.944;9.098;2024-03-23T06:58:23;100486.81;;;14.66;72.31
21109;BME280;10712;52.944;9.098;2024-03-23T07:00:50;100481.31;;;14.68;72.28
21109;BME280;10712;52.944;9.098;2024-03-23T07:03:19;100488.50;;;14.67;72.33
21109;BME280;10712;52.944;9.098;2024-03-23T07:05:45;100491.72;;;14.72;72.62
21109;BME280;10712;52.944;9.098;2024-03-23T07:08:11;100487.19;;;14.84;72.34
21109;BME280;10712;52.944;9.098;2024-03-23T07:10:40;100484.13;;;14.77;72.59
21109;BME280;10712;52.944;9.098;2024-03-23T07:13:06;100485.59;;;14.81;72.46
21109;BME280;10712;52.944;9.098;2024-03-23T07:15:33;100484.63;;;14.93;72.36
21109;BME280;10712;52.944;9.098;2024-03-23T07:17:59;100490.00;;;14.93;72.60
21109;BME280;10712;52.944;9.098;2024-03-23T07:20:25;100483.75;;;15.04;72.45
21109;BME280;10712;52.944;9.098;2024-03-23T07:22:50;100486.81;;;15.00;72.59
21109;BME280;10712;52.944;9.098;2024-03-23T07:25:16;100484.13;;;15.00;72.68
21109;BME280;10712;52.944;9.098;2024-03-23T07:27:42;100484.84;;;15.13;72.30
21109;BME280;10712;52.944;9.098;2024-03-23T07:30:09;100489.00;;;15.06;72.21
21109;BME280;10712;52.944;9.098;2024-03-23T07:32:35;100481.41;;;15.11;72.23
21109;BME280;10712;52.944;9.098;2024-03-23T07:35:02;100490.22;;;15.13;72.54
21109;BME280;10712;52.944;9.098;2024-03-23T07:37:28;100483.47;;;15.18;72.66
21109;BME280;10712;52.944;9.098;2024-03-23T07:39:54;100480.75;;;15.29;72.26
21109;BME280;10712;52.944;9.098;2024-03-23T07:42:20;100484.81;;;15.35;72.42
21109;BME280;10712;52.944;9.098;2024-03-23T07:44:46;100483.78;;;15.36;72.56
21109;BME280;10712;52.944;9.098;2024-03-23T07:47:12;100487.47;;;15.35;72.39
21109;BME280;10712;52.944;9.098;2024-03-23T07:49:38;100489.38;;;15.44;71.58
21109;BME280;10712;52.944;9.098;2024-03-23T07:52:05;100487.16;;;15.49;71.18
21109;BME280;10712;52.944;9.098;2024-03-23T07:54:31;100482.31;;;15.43;71.04
21109;BME280;10712;52.944;9.098;2024-03-23T07:56:57;100482.53;;;15.51;70.89
21109;BME280;10712;52.944;9.098;2024-03-23T07:59:23;100485.00;;;15.54;70.79
21109;BME280;10712;52.944;9.098;2024-03-23T08:01:48;100489.25;;;15.57;70.83
21109;BME280;10712;52.944;9.098;2024-03-23T08:04:15;100483.78;;;15.47;70.61
21109;BME280;10712;52.944;9.098;2024-03-23T08:06:40;100480.31;;;15.67;70.15
21109;BME280;10712;52.944;9.098;2024-03-23T08:09:06;100481.69;;;15.62;70.24
21109;BME280;10712;52.944;9.098;2024-03-23T08:11:32;100474.97;;;15.56;70.24
21109;BME280;10712;52.944;9.098;2024-03-23T08:14:01;100476.03;;;15.65;69.96
21109;BME280;10712;52.944;9.098;2024-03-23T08:16:27;100473.19;;;15.77;69.87
21109;BME280;10712;52.944;9.098;2024-03-23T08:18:54;100471.69;;;15.85;69.85
21109;BME280;10712;52.944;9.098;2024-03-23T08:21:22;100468.16;;;16.05;69.59
21109;BME280;10712;52.944;9.098;2024-03-23T08:23:48;100470.13;;;16.03;68.89
21109;BME280;10712;52.944;9.098;2024-03-23T08:26:16;100464.59;;;15.84;68.86
21109;BME280;10712;52.944;9.098;2024-03-23T08:28:43;100467.28;;;16.04;68.51
21109;BME280;10712;52.944;9.098;2024-03-23T08:31:12;100460.16;;;15.94;69.14
21109;BME280;10712;52.944;9.098;2024-03-23T08:33:39;100463.06;;;16.02;68.58
21109;BME280;10712;52.944;9.098;2024-03-23T08:36:10;100458.06;;;16.18;68.16
21109;BME280;10712;52.944;9.098;2024-03-23T08:38:38;100464.75;;;16.24;67.99
21109;BME280;10712;52.944;9.098;2024-03-23T08:41:07;100467.47;;;16.33;67.85
21109;BME280;10712;52.944;9.098;2024-03-23T08:43:37;100464.41;;;16.38;67.68
21109;BME280;10712;52.944;9.098;2024-03-23T08:46:05;100464.41;;;16.38;67.80
21109;BME280;10712;52.944;9.098;2024-03-23T08:48:39;100460.88;;;16.37;67.99
21109;BME280;10712;52.944;9.098;2024-03-23T08:51:06;100463.59;;;16.47;67.92
21109;BME280;10712;52.944;9.098;2024-03-23T08:53:34;100455.69;;;16.45;67.72
21109;BME280;10712;52.944;9.098;2024-03-23T08:56:02;100451.28;;;16.65;67.14
21109;BME280;10712;52.944;9.098;2024-03-23T08:58:30;100464.19;;;16.50;66.02
21109;BME280;10712;52.944;9.098;2024-03-23T09:01:04;100454.53;;;16.38;65.84
21109;BME280;10712;52.944;9.098;2024-03-23T09:03:30;100452.28;;;16.43;65.52
21109;BME280;10712;52.944;9.098;2024-03-23T09:05:56;100451.28;;;16.44;64.88
21109;BME280;10712;52.944;9.098;2024-03-23T09:08:24;100453.84;;;16.25;64.54
21109;BME280;10712;52.944;9.098;2024-03-23T09:10:50;100459.50;;;16.22;64.66
21109;BME280;10712;52.944;9.098;2024-03-23T09:13:16;100450.66;;;16.31;64.89
21109;BME280;10712;52.944;9.098;2024-03-23T09:15:52;100455.94;;;16.42;64.91
21109;BME280;10712;52.944;9.098;2024-03-23T09:18:22;100450.56;;;16.42;65.39
21109;BME280;10712;52.944;9.098;2024-03-23T09:20:48;100452.38;;;16.63;64.75
21109;BME280;10712;52.944;9.098;2024-03-23T09:23:13;100458.06;;;16.69;64.69
21109;BME280;10712;52.944;9.098;2024-03-23T09:25:40;100453.34;;;16.92;64.78
21109;BME280;10712;52.944;9.098;2024-03-23T09:28:07;100445.22;;;16.73;63.01
21109;BME280;10712;52.944;9.098;2024-03-23T09:30:36;100453.41;;;17.11;62.96
21109;BME280;10712;52.944;9.098;2024-03-23T09:33:11;100449.28;;;17.07;62.18
21109;BME280;10712;52.944;9.098;2024-03-23T09:35:42;100455.19;;;16.91;60.22
21109;BME280;10712;52.944;9.098;2024-03-23T09:38:08;100458.13;;;16.79;60.70
21109;BME280;10712;52.944;9.098;2024-03-23T09:40:40;100456.59;;;16.86;61.58
21109;BME280;10712;52.944;9.098;2024-03-23T09:43:07;100467.22;;;16.36;60.90
21109;BME280;10712;52.944;9.098;2024-03-23T09:45:39;100467.53;;;16.64;60.02
21109;BME280;10712;52.944;9.098;2024-03-23T09:48:08;100483.56;;;16.24;60.82
21109;BME280;10712;52.944;9.098;2024-03-23T09:50:43;100481.09;;;15.90;62.56
21109;BME280;10712;52.944;9.098;2024-03-23T09:53:14;100483.31;;;15.31;62.98
21109;BME280;10712;52.944;9.098;2024-03-23T09:55:42;100491.16;;;15.23;63.42
21109;BME280;10712;52.944;9.098;2024-03-23T09:58:13;100476.06;;;14.88;64.08
21109;BME280;10712;52.944;9.098;2024-03-23T10:00:39;100473.03;;;14.93;64.93
21109;BME280;10712;52.944;9.098;2024-03-23T10:03:05;100479.75;;;14.98;64.94
21109;BME280;10712;52.944;9.098;2024-03-23T10:05:33;100478.06;;;14.86;65.75
21109;BME280;10712;52.944;9.098;2024-03-23T10:08:18;100472.41;;;14.89;66.36
21109;BME280;10712;52.944;9.098;2024-03-23T10:10:47;100480.22;;;14.81;67.06
21109;BME280;10712;52.944;9.098;2024-03-23T10:13:27;100478.16;;;14.85;67.42
21109;BME280;10712;52.944;9.098;2024-03-23T10:15:57;100476.34;;;14.85;67.83
21109;BME280;10712;52.944;9.098;2024-03-23T10:18:24;100474.88;;;14.92;68.18
21109;BME280;10712;52.944;9.098;2024-03-23T10:21:11;100471.91;;;15.18;68.99
21109;BME280;10712;52.944;9.098;2024-03-23T10:23:42;100464.75;;;15.39;69.75
21109;BME280;10712;52.944;9.098;2024-03-23T10:26:24;100465.44;;;15.52;69.81
21109;BME280;10712;52.944;9.098;2024-03-23T10:31:18;100469.31;;;15.91;70.43
21109;BME280;10712;52.944;9.098;2024-03-23T10:33:47;100469.22;;;15.93;68.10
21109;BME280;10712;52.944;9.098;2024-03-23T10:36:14;100464.09;;;15.90;67.51
21109;BME280;10712;52.944;9.098;2024-03-23T10:38:47;100467.50;;;15.92;66.91
21109;BME280;10712;52.944;9.098;2024-03-23T10:41:13;100463.09;;;15.91;67.38
21109;BME280;10712;52.944;9.098;2024-03-23T10:43:39;100460.69;;;15.88;67.90
21109;BME280;10712;52.944;9.098;2024-03-23T10:46:05;100452.69;;;15.97;67.26
21109;BME280;10712;52.944;9.098;2024-03-23T10:48:34;100448.38;;;16.06;66.30
21109;BME280;10712;52.944;9.098;2024-03-23T10:51:00;100444.38;;;16.00;66.90
21109;BME280;10712;52.944;9.098;2024-03-23T10:53:28;100436.56;;;16.18;67.01
21109;BME280;10712;52.944;9.098;2024-03-23T10:55:56;100435.84;;;16.46;66.86
21109;BME280;10712;52.944;9.098;2024-03-23T10:58:31;100434.47;;;16.73;67.26
21109;BME280;10712;52.944;9.098;2024-03-23T11:00:58;100421.16;;;16.81;65.60
21109;BME280;10712;52.944;9.098;2024-03-23T11:03:31;100436.31;;;16.82;65.33
21109;BME280;10712;52.944;9.098;2024-03-23T11:05:57;100425.59;;;16.91;64.06
21109;BME280;10712;52.944;9.098;2024-03-23T11:08:39;100430.63;;;16.75;62.98
21109;BME280;10712;52.944;9.098;2024-03-23T11:13:49;100438.06;;;16.32;64.37
21109;BME280;10712;52.944;9.098;2024-03-23T11:16:25;100434.56;;;16.41;64.80
21109;BME280;10712;52.944;9.098;2024-03-23T11:19:39;100430.66;;;16.54;64.74
21109;BME280;10712;52.944;9.098;2024-03-23T11:22:06;100426.25;;;16.44;64.55
21109;BME280;10712;52.944;9.098;2024-03-23T11:24:32;100427.13;;;16.54;63.92
21109;BME280;10712;52.944;9.098;2024-03-23T11:26:59;100436.56;;;16.48;63.57
21109;BME280;10712;52.944;9.098;2024-03-23T11:29:27;100441.78;;;16.40;63.25
21109;BME280;10712;52.944;9.098;2024-03-23T11:31:53;100442.38;;;16.44;61.61
21109;BME280;10712;52.944;9.098;2024-03-23T11:34:20;100434.00;;;16.37;61.51
21109;BME280;10712;52.944;9.098;2024-03-23T11:36:47;100435.06;;;16.55;61.92
21109;BME280;10712;52.944;9.098;2024-03-23T11:39:18;100422.34;;;16.58;62.22
21109;BME280;10712;52.944;9.098;2024-03-23T11:41:56;100430.94;;;16.82;62.13
21109;BME280;10712;52.944;9.098;2024-03-23T11:44:25;100427.84;;;16.86;61.64
21109;BME280;10712;52.944;9.098;2024-03-23T11:46:52;100408.59;;;16.91;60.65
21109;BME280;10712;52.944;9.098;2024-03-23T11:49:24;100421.31;;;16.89;60.77
21109;BME280;10712;52.944;9.098;2024-03-23T11:51:51;100415.09;;;16.88;60.97
21109;BME280;10712;52.944;9.098;2024-03-23T11:54:26;100423.94;;;17.00;61.11
21109;BME280;10712;52.944;9.098;2024-03-23T11:57:02;100426.75;;;17.08;61.30
21109;BME280;10712;52.944;9.098;2024-03-23T11:59:40;100425.88;;;16.98;60.21
21109;BME280;10712;52.944;9.098;2024-03-23T12:02:09;100417.34;;;16.83;59.52
21109;BME280;10712;52.944;9.098;2024-03-23T12:04:40;100424.69;;;16.72;59.15
21109;BME280;10712;52.944;9.098;2024-03-23T12:07:19;100420.44;;;16.48;59.56
21109;BME280;10712;52.944;9.098;2024-03-23T12:10:05;100426.53;;;16.50;60.72
21109;BME280;10712;52.944;9.098;2024-03-23T12:12:34;100422.97;;;16.71;60.57
21109;BME280;10712;52.944;9.098;2024-03-23T12:15:08;100422.38;;;16.67;60.78
21109;BME280;10712;52.944;9.098;2024-03-23T12:17:35;100410.56;;;16.89;61.29
21109;BME280;10712;52.944;9.098;2024-03-23T12:20:01;100404.66;;;17.05;61.03
21109;BME280;10712;52.944;9.098;2024-03-23T12:22:28;100397.28;;;17.16;60.46
21109;BME280;10712;52.944;9.098;2024-03-23T12:24:55;100393.19;;;17.12;60.17
21109;BME280;10712;52.944;9.098;2024-03-23T12:27:22;100382.56;;;17.30;59.53
21109;BME280;10712;52.944;9.098;2024-03-23T12:29:48;100374.09;;;17.35;58.69
21109;BME280;10712;52.944;9.098;2024-03-23T12:32:15;100389.94;;;17.18;59.44
21109;BME280;10712;52.944;9.098;2024-03-23T12:34:41;100393.34;;;17.40;58.46
21109;BME280;10712;52.944;9.098;2024-03-23T12:37:08;100393.06;;;17.43;58.74
21109;BME280;10712;52.944;9.098;2024-03-23T12:39:34;100391.09;;;17.45;58.83
21109;BME280;10712;52.944;9.098;2024-03-23T12:42:02;100393.09;;;17.62;59.51
21109;BME280;10712;52.944;9.098;2024-03-23T12:44:30;100397.19;;;17.66;57.86
21109;BME280;10712;52.944;9.098;2024-03-23T12:46:56;100463.59;;;17.08;59.94
21109;BME280;10712;52.944;9.098;2024-03-23T12:49:22;100458.81;;;16.81;59.79
21109;BME280;10712;52.944;9.098;2024-03-23T12:51:54;100463.16;;;15.80;61.13
21109;BME280;10712;52.944;9.098;2024-03-23T12:54:25;100482.78;;;15.59;62.04
21109;BME280;10712;52.944;9.098;2024-03-23T12:56:50;100466.13;;;15.22;62.58
21109;BME280;10712;52.944;9.098;2024-03-23T12:59:16;100471.44;;;15.02;63.08
21109;BME280;10712;52.944;9.098;2024-03-23T13:01:44;100461.56;;;14.80;63.96
21109;BME280;10712;52.944;9.098;2024-03-23T13:04:10;100460.97;;;14.76;64.33
21109;BME280;10712;52.944;9.098;2024-03-23T13:06:36;100462.06;;;14.74;64.71
21109;BME280;10712;52.944;9.098;2024-03-23T13:09:02;100453.03;;;14.52;65.38
21109;BME280;10712;52.944;9.098;2024-03-23T13:11:29;100461.19;;;14.95;65.29
21109;BME280;10712;52.944;9.098;2024-03-23T13:13:55;100449.72;;;15.05;65.22
21109;BME280;10712;52.944;9.098;2024-03-23T13:16:21;100448.50;;;15.09;65.63
21109;BME280;10712;52.944;9.098;2024-03-23T13:18:47;100438.72;;;15.08;65.76
21109;BME280;10712;52.944;9.098;2024-03-23T13:21:13;100436.66;;;15.11;65.76
21109;BME280;10712;52.944;9.098;2024-03-23T13:23:39;100427.75;;;15.11;65.64
21109;BME280;10712;52.944;9.098;2024-03-23T13:26:08;100428.44;;;15.24;66.01
21109;BME280;10712;52.944;9.098;2024-03-23T13:28:34;100420.63;;;15.32;66.04
21109;BME280;10712;52.944;9.098;2024-03-23T13:31:01;100410.69;;;15.44;66.50
21109;BME280;10712;52.944;9.098;2024-03-23T13:33:31;100410.75;;;15.64;66.82
21109;BME280;10712;52.944;9.098;2024-03-23T13:35:59;100403.09;;;15.81;66.43
21109;BME280;10712;52.944;9.098;2024-03-23T13:38:25;100407.59;;;16.01;65.65
21109;BME280;10712;52.944;9.098;2024-03-23T13:40:57;100410.84;;;15.95;64.36
21109;BME280;10712;52.944;9.098;2024-03-23T13:43:24;100407.06;;;16.07;63.50
21109;BME280;10712;52.944;9.098;2024-03-23T13:45:58;100409.66;;;16.18;63.55
21109;BME280;10712;52.944;9.098;2024-03-23T13:48:27;100409.41;;;16.21;63.42
21109;BME280;10712;52.944;9.098;2024-03-23T13:51:01;100415.03;;;16.18;63.09